Time;durP1;ratioP1;P1;durP2;ratioP2;P2;SDS_P1;SDS_P2;PMS_P1;PMS_P2;Temp;Humidity;BMP_temperature;BMP_pressure;BME280_temperature;BME280_humidity;BME280_pressure;Samples;Min_cycle;Max_cycle;Signal;HPM_P1;HPM_P2
2022/05/20 00:01:59;;;;;;;4.82;2.47;;;12.70;99.90;;;;;;5014824;28;20037;-49
2022/05/20 00:04:25;;;;;;;5.38;1.92;;;12.70;99.90;;;;;;5023953;28;20517;-49
2022/05/20 00:06:50;;;;;;;4.43;2.22;;;12.80;99.90;;;;;;4992250;28;20034;-49
2022/05/20 00:09:16;;;;;;;3.35;2.55;;;12.80;99.90;;;;;;5024560;28;20080;-49
2022/05/20 00:11:42;;;;;;;4.90;2.88;;;12.70;99.90;;;;;;4992045;28;20489;-49
2022/05/20 00:14:08;;;;;;;5.05;2.90;;;12.80;99.90;;;;;;4992250;28;20534;-49
2022/05/20 00:16:37;;;;;;;4.50;3.22;;;12.70;99.90;;;;;;4991834;28;20105;-51
2022/05/20 00:19:04;;;;;;;5.00;2.80;;;12.70;99.90;;;;;;4992126;28;20061;-49
2022/05/20 00:21:31;;;;;;;5.00;2.50;;;12.80;99.90;;;;;;4992118;28;20114;-49
2022/05/20 00:23:57;;;;;;;4.15;2.28;;;12.70;99.90;;;;;;4991667;28;20614;-49
2022/05/20 00:26:23;;;;;;;4.10;2.40;;;12.70;99.90;;;;;;4992059;28;20109;-49
2022/05/20 00:28:49;;;;;;;5.32;2.88;;;12.80;99.90;;;;;;4991851;28;20127;-49
2022/05/20 00:31:16;;;;;;;3.53;2.15;;;12.90;99.90;;;;;;5024267;28;20042;-49
2022/05/20 00:33:42;;;;;;;5.40;2.25;;;12.90;99.90;;;;;;4995483;28;20037;-49
2022/05/20 00:36:08;;;;;;;4.22;2.28;;;12.90;99.90;;;;;;5024836;28;20030;-48
2022/05/20 00:38:35;;;;;;;3.30;2.05;;;13.00;99.90;;;;;;5047994;28;20079;-49
2022/05/20 00:41:01;;;;;;;3.15;1.95;;;13.10;99.90;;;;;;5030912;28;20037;-49
2022/05/20 00:43:33;;;;;;;3.58;2.20;;;13.10;99.90;;;;;;5031014;28;20042;-49
2022/05/20 00:46:02;;;;;;;3.33;2.55;;;13.20;99.90;;;;;;5031135;28;20116;-49
2022/05/20 00:48:29;;;;;;;4.30;2.70;;;13.40;99.90;;;;;;5014294;28;20029;-49
2022/05/20 00:51:05;;;;;;;6.20;2.60;;;13.50;99.90;;;;;;5030838;28;20040;-50
2022/05/20 00:53:37;;;;;;;5.57;3.00;;;13.50;99.90;;;;;;5030949;28;20025;-49
2022/05/20 00:56:05;;;;;;;6.30;2.70;;;13.50;99.90;;;;;;5030504;28;20116;-49
2022/05/20 00:58:30;;;;;;;5.47;2.60;;;13.50;99.90;;;;;;4965806;28;20107;-50
2022/05/20 01:00:59;;;;;;;4.70;2.85;;;13.40;99.90;;;;;;4997796;28;20038;-50
2022/05/20 01:03:28;;;;;;;9.32;5.50;;;13.30;99.90;;;;;;5030919;28;20095;-51
2022/05/20 01:05:56;;;;;;;12.30;7.30;;;13.30;99.90;;;;;;5030634;28;20038;-50
2022/05/20 01:08:25;;;;;;;12.00;7.85;;;13.40;99.90;;;;;;5030956;28;20025;-49
2022/05/20 01:10:51;;;;;;;12.25;6.57;;;13.50;99.90;;;;;;5030470;28;20166;-49
2022/05/20 01:13:18;;;;;;;13.52;6.78;;;13.40;99.90;;;;;;5030570;28;20053;-49
2022/05/20 01:15:45;;;;;;;9.98;5.88;;;13.40;99.90;;;;;;5030481;28;20045;-49
2022/05/20 01:18:13;;;;;;;7.55;5.50;;;13.40;99.90;;;;;;5034022;28;20128;-50
2022/05/20 01:20:42;;;;;;;7.65;5.38;;;13.30;99.90;;;;;;5001596;28;20137;-49
2022/05/20 01:23:14;;;;;;;7.47;4.78;;;13.20;99.90;;;;;;4994838;28;20112;-49
2022/05/20 01:25:43;;;;;;;6.45;4.30;;;13.10;99.90;;;;;;4995391;28;20195;-49
2022/05/20 01:28:10;;;;;;;8.15;4.88;;;13.20;99.90;;;;;;4976515;28;20058;-49
2022/05/20 01:30:39;;;;;;;6.47;4.00;;;13.20;99.90;;;;;;4975784;28;20458;-49
2022/05/20 01:33:07;;;;;;;7.43;4.50;;;13.20;99.90;;;;;;4975702;28;20061;-49
2022/05/20 01:35:44;;;;;;;5.45;3.80;;;13.20;99.90;;;;;;4975679;28;20047;-49
2022/05/20 01:38:11;;;;;;;8.98;5.40;;;13.00;99.90;;;;;;4975514;28;20047;-49
2022/05/20 01:40:52;;;;;;;9.98;4.07;;;13.00;99.90;;;;;;4975502;28;20134;-50
2022/05/20 01:43:17;;;;;;;6.30;3.75;;;12.90;99.90;;;;;;4959194;28;20047;-49
2022/05/20 01:45:55;;;;;;;5.68;3.83;;;13.00;99.90;;;;;;4960978;28;20138;-49
2022/05/20 01:48:35;;;;;;;12.18;4.72;;;12.90;99.90;;;;;;4994623;28;20042;-49
2022/05/20 01:51:04;;;;;;;10.30;5.50;;;12.80;99.90;;;;;;4994871;28;20034;-49
2022/05/20 01:53:51;;;;;;;8.10;4.30;;;12.60;99.90;;;;;;5005654;28;20096;-49
2022/05/20 01:56:25;;;;;;;10.23;4.32;;;12.50;99.90;;;;;;5036477;28;20025;-51
2022/05/20 01:59:01;;;;;;;10.18;5.00;;;12.30;99.90;;;;;;5036275;28;20029;-52
2022/05/20 02:01:44;;;;;;;11.65;5.20;;;12.00;99.90;;;;;;5035840;28;20017;-52
2022/05/20 02:04:23;;;;;;;9.73;5.00;;;11.70;99.90;;;;;;5035968;28;20087;-52
2022/05/20 02:06:58;;;;;;;8.10;4.75;;;11.50;99.90;;;;;;5036193;28;20113;-51
2022/05/20 02:09:40;;;;;;;7.18;4.10;;;11.30;99.90;;;;;;5036228;28;20029;-49
2022/05/20 02:12:06;;;;;;;8.35;4.35;;;11.30;99.90;;;;;;5036156;28;20038;-50
2022/05/20 02:14:41;;;;;;;5.63;3.70;;;11.30;99.90;;;;;;5050566;28;20049;-50
2022/05/20 02:17:34;;;;;;;7.38;4.15;;;11.30;99.90;;;;;;5050587;28;20041;-52
2022/05/20 02:20:33;;;;;;;7.47;3.85;;;10.90;99.90;;;;;;5035683;28;20380;-50
2022/05/20 02:23:04;;;;;;;7.85;4.07;;;10.50;99.90;;;;;;5033450;28;20037;-51
2022/05/20 02:25:37;;;;;;;6.55;3.90;;;10.80;99.90;;;;;;5033575;28;20045;-49
2022/05/20 02:28:27;;;;;;;6.32;3.60;;;10.30;99.90;;;;;;4983033;28;20030;-51
2022/05/20 02:30:54;;;;;;;5.50;3.70;;;10.20;99.90;;;;;;5033595;28;20089;-51
2022/05/20 02:33:25;;;;;;;6.78;3.70;;;10.10;99.90;;;;;;5033307;28;20478;-53
2022/05/20 02:35:51;;;;;;;7.80;3.88;;;9.80;99.90;;;;;;5033490;28;20041;-51
2022/05/20 02:38:22;;;;;;;5.95;3.70;;;9.80;99.90;;;;;;5033042;28;20033;-51
2022/05/20 02:40:53;;;;;;;5.65;3.33;;;9.60;99.90;;;;;;5033391;28;20041;-51
2022/05/20 02:43:20;;;;;;;6.38;3.45;;;9.40;99.90;;;;;;5033268;28;20183;-52
2022/05/20 02:45:48;;;;;;;6.03;3.10;;;9.40;99.90;;;;;;4983755;28;20128;-51
2022/05/20 02:48:17;;;;;;;5.35;3.40;;;9.60;99.90;;;;;;5032892;28;20450;-51
2022/05/20 02:50:43;;;;;;;4.60;2.72;;;9.30;99.90;;;;;;5032791;28;20037;-52
2022/05/20 02:53:09;;;;;;;4.80;3.03;;;9.20;99.90;;;;;;5032323;28;20052;-51
2022/05/20 02:55:36;;;;;;;4.90;3.17;;;9.30;99.90;;;;;;5033037;28;20339;-51
2022/05/20 02:58:03;;;;;;;6.25;3.40;;;9.50;99.90;;;;;;5032766;28;20461;-51
2022/05/20 03:05:58;;;;;;;4.28;3.35;;;9.50;99.90;;;;;;5035466;28;20095;-50
2022/05/20 03:08:24;;;;;;;6.90;4.00;;;9.40;99.90;;;;;;5035245;28;20026;-52
2022/05/20 03:10:50;;;;;;;5.80;3.47;;;9.50;99.90;;;;;;5035172;28;20104;-52
2022/05/20 03:13:17;;;;;;;5.90;4.07;;;9.60;99.90;;;;;;5035199;28;20533;-51
2022/05/20 03:15:44;;;;;;;5.72;3.55;;;9.90;99.90;;;;;;5034892;28;20486;-51
2022/05/20 03:18:11;;;;;;;6.72;3.88;;;10.30;99.90;;;;;;5035120;28;20040;-51
2022/05/20 03:20:38;;;;;;;7.68;4.07;;;10.20;99.90;;;;;;5016034;28;20041;-51
2022/05/20 03:23:05;;;;;;;8.75;4.35;;;10.00;99.90;;;;;;5033368;28;20030;-52
2022/05/20 03:25:31;;;;;;;6.50;4.28;;;9.80;99.90;;;;;;5015999;28;20072;-51
2022/05/20 03:27:57;;;;;;;8.82;5.45;;;9.70;99.90;;;;;;5015690;28;20076;-50
2022/05/20 03:30:23;;;;;;;7.60;4.05;;;9.50;99.90;;;;;;5034862;28;20461;-51
2022/05/20 03:32:50;;;;;;;6.00;4.90;;;9.50;99.90;;;;;;5016310;28;20099;-51
2022/05/20 03:35:16;;;;;;;10.48;4.65;;;9.50;99.90;;;;;;5034830;28;20029;-51
2022/05/20 03:37:42;;;;;;;9.27;4.68;;;9.70;99.90;;;;;;5034537;28;20117;-51
2022/05/20 03:40:08;;;;;;;5.35;3.50;;;9.80;99.90;;;;;;5034322;28;20033;-51
2022/05/20 03:42:34;;;;;;;7.10;4.43;;;9.80;99.90;;;;;;5034612;28;20083;-50
2022/05/20 03:45:00;;;;;;;7.45;4.30;;;10.20;99.90;;;;;;5034551;28;20445;-50
2022/05/20 03:47:26;;;;;;;8.48;4.60;;;10.10;99.90;;;;;;5032480;28;20037;-50
2022/05/20 03:49:52;;;;;;;7.75;5.07;;;10.00;99.90;;;;;;5034648;28;20026;-51
2022/05/20 03:52:18;;;;;;;6.95;4.30;;;10.10;99.90;;;;;;5034574;28;20041;-50
2022/05/20 03:54:44;;;;;;;8.57;4.72;;;10.30;99.90;;;;;;5034314;28;20052;-50
2022/05/20 03:57:10;;;;;;;7.18;4.30;;;10.60;99.90;;;;;;5034256;28;20042;-50
2022/05/20 03:59:36;;;;;;;6.57;4.03;;;11.10;99.90;;;;;;5034148;28;20024;-50
2022/05/20 04:02:05;;;;;;;6.43;3.90;;;11.20;99.90;;;;;;4993194;28;20041;-51
2022/05/20 04:04:40;;;;;;;11.55;5.20;;;11.40;99.90;;;;;;5033782;28;20033;-50
2022/05/20 04:07:11;;;;;;;6.53;4.35;;;11.60;99.90;;;;;;5016612;28;20797;-51
2022/05/20 04:09:37;;;;;;;6.32;4.07;;;11.40;99.90;;;;;;5018262;28;20037;-50
2022/05/20 04:12:06;;;;;;;8.07;4.57;;;11.10;99.90;;;;;;5014653;28;20044;-50
2022/05/20 04:14:33;;;;;;;9.32;5.30;;;11.20;99.90;;;;;;5015488;28;20137;-50
2022/05/20 04:16:59;;;;;;;10.43;5.50;;;11.60;99.90;;;;;;5027787;28;20091;-50
2022/05/20 04:19:26;;;;;;;9.38;5.07;;;11.90;99.90;;;;;;5013164;28;20038;-51
2022/05/20 04:21:54;;;;;;;13.05;5.28;;;12.10;99.90;;;;;;5030547;28;20046;-50
2022/05/20 04:24:20;;;;;;;16.20;6.28;;;12.40;99.90;;;;;;5024288;28;20056;-50
2022/05/20 04:26:46;;;;;;;10.52;4.75;;;12.60;99.90;;;;;;4998334;28;20029;-50
2022/05/20 04:29:14;;;;;;;10.93;4.65;;;12.70;99.90;;;;;;5031391;28;20489;-51
2022/05/20 04:31:44;;;;;;;10.75;5.13;;;12.80;99.90;;;;;;5031164;28;20112;-51
2022/05/20 04:34:11;;;;;;;9.27;5.18;;;;;;;;;;5031314;28;20025;-51
2022/05/20 04:36:37;;;;;;;16.77;6.35;;;13.20;99.90;;;;;;5031202;28;20048;-52
2022/05/20 04:39:03;;;;;;;11.73;5.88;;;13.20;99.90;;;;;;5033088;28;20041;-51
2022/05/20 04:47:00;;;;;;;17.42;4.55;;;13.40;99.90;;;;;;5033571;28;20079;-50
2022/05/20 04:49:28;;;;;;;8.23;5.22;;;13.40;99.90;;;;;;5030808;28;20442;-50
2022/05/20 04:51:54;;;;;;;9.43;4.65;;;13.40;99.90;;;;;;5030276;28;20108;-51
2022/05/20 04:57:05;;;;;;;13.38;7.10;;;;;;;;;;5013747;28;20088;-50
2022/05/20 04:59:41;;;;;;;11.13;6.55;;;13.60;99.90;;;;;;5013745;28;20104;-51
2022/05/20 05:02:07;;;;;;;10.90;6.38;;;13.60;99.90;;;;;;5020221;28;20029;-51
2022/05/20 05:04:33;;;;;;;12.55;5.38;;;13.60;99.90;;;;;;5028304;28;20084;-51
2022/05/20 05:06:59;;;;;;;9.57;4.50;;;13.80;99.90;;;;;;5026961;28;20022;-50
2022/05/20 05:09:25;;;;;;;9.82;5.20;;;13.90;99.90;;;;;;5028344;28;20029;-55
2022/05/20 05:11:51;;;;;;;7.10;4.68;;;14.10;99.90;;;;;;5023453;28;20129;-51
2022/05/20 05:14:17;;;;;;;9.68;4.68;;;14.30;99.90;;;;;;5021939;28;20109;-51
2022/05/20 05:16:43;;;;;;;8.80;4.65;;;14.50;99.90;;;;;;5017321;28;20129;-51
2022/05/20 05:19:11;;;;;;;9.20;4.80;;;14.50;99.90;;;;;;5021514;28;20699;-50
2022/05/20 05:21:37;;;;;;;7.07;4.88;;;14.60;99.90;;;;;;5017996;28;20396;-51
2022/05/20 05:24:07;;;;;;;9.50;5.82;;;14.70;99.90;;;;;;5031265;28;20052;-50
2022/05/20 05:26:37;;;;;;;9.43;5.88;;;14.80;99.90;;;;;;5030997;28;20062;-51
2022/05/20 05:29:04;;;;;;;9.40;6.00;;;15.00;99.90;;;;;;5032685;28;20040;-50
2022/05/20 05:31:30;;;;;;;12.45;6.22;;;15.20;99.90;;;;;;5018356;28;20164;-52
2022/05/20 05:33:56;;;;;;;9.82;5.47;;;15.20;99.90;;;;;;5028624;28;20040;-51
2022/05/20 05:36:22;;;;;;;10.82;5.63;;;15.40;99.90;;;;;;5029794;28;20033;-49
2022/05/20 05:38:48;;;;;;;11.35;6.50;;;;;;;;;;5023944;28;20042;-51
2022/05/20 05:41:17;;;;;;;15.55;7.40;;;15.90;99.90;;;;;;5022991;28;20461;-52
2022/05/20 05:43:43;;;;;;;13.00;7.82;;;15.90;99.90;;;;;;5028659;28;20040;-48
2022/05/20 05:46:09;;;;;;;14.95;8.50;;;15.90;99.90;;;;;;5031503;28;20343;-49
2022/05/20 05:48:35;;;;;;;14.35;7.40;;;16.10;99.90;;;;;;5044387;28;20094;-49
2022/05/20 05:51:02;;;;;;;11.90;6.97;;;16.10;99.90;;;;;;5025669;28;20021;-49
2022/05/20 05:53:28;;;;;;;13.80;7.63;;;16.30;99.90;;;;;;5025499;28;20171;-49
2022/05/20 05:55:55;;;;;;;14.70;7.85;;;;;;;;;;5029398;28;20112;-49
2022/05/20 05:58:22;;;;;;;12.75;7.50;;;;;;;;;;5021201;28;20045;-48
2022/05/20 06:00:48;;;;;;;9.90;7.60;;;;;;;;;;5017997;28;20103;-49
2022/05/20 06:03:16;;;;;;;11.38;6.45;;;;;;;;;;5047241;28;20045;-49
2022/05/20 06:05:42;;;;;;;9.52;5.70;;;;;;;;;;5032313;28;20477;-48
2022/05/20 06:08:08;;;;;;;13.50;5.93;;;16.50;99.90;;;;;;5036452;28;20051;-50
2022/05/20 06:10:35;;;;;;;8.68;5.60;;;;;;;;;;5035025;28;20025;-45
2022/05/20 06:13:01;;;;;;;8.70;5.22;;;17.30;99.90;;;;;;5036047;28;20021;-47
2022/05/20 06:15:27;;;;;;;11.45;5.63;;;17.30;99.90;;;;;;5036005;28;20055;-46
2022/05/20 06:17:53;;;;;;;8.60;4.88;;;17.40;99.90;;;;;;5035929;28;20044;-48
2022/05/20 06:20:21;;;;;;;13.50;5.82;;;17.50;99.90;;;;;;5036077;28;20041;-47
2022/05/20 06:22:47;;;;;;;9.35;5.65;;;17.70;99.90;;;;;;5033854;28;20398;-46
2022/05/20 06:25:14;;;;;;;14.40;5.35;;;17.60;99.90;;;;;;5036086;28;20100;-47
2022/05/20 06:27:40;;;;;;;8.45;4.30;;;17.70;99.90;;;;;;5036024;28;20409;-45
2022/05/20 06:30:08;;;;;;;4.93;4.00;;;17.90;99.90;;;;;;5036010;28;20065;-45
2022/05/20 06:32:35;;;;;;;5.90;3.92;;;17.90;99.90;;;;;;5033441;28;20053;-45
2022/05/20 06:40:45;;;;;;;5.38;3.50;;;18.40;99.90;;;;;;5033915;28;20547;-50
2022/05/20 06:43:18;;;;;;;7.50;3.55;;;18.50;99.90;;;;;;4997032;28;20041;-48
2022/05/20 06:45:46;;;;;;;8.32;3.33;;;18.60;99.90;;;;;;5013579;28;20046;-46
2022/05/20 06:48:13;;;;;;;8.20;3.55;;;;;;;;;;5013428;28;20045;-45
2022/05/20 06:50:39;;;;;;;12.45;3.80;;;19.10;99.90;;;;;;5012400;28;20038;-45
2022/05/20 06:53:06;;;;;;;6.00;3.53;;;19.30;99.90;;;;;;5013202;28;20042;-46
2022/05/20 06:55:32;;;;;;;10.18;3.58;;;19.30;99.90;;;;;;5013059;28;20040;-46
2022/05/20 06:57:58;;;;;;;7.28;3.90;;;19.50;99.90;;;;;;5013295;28;20082;-45
2022/05/20 07:00:24;;;;;;;6.97;4.03;;;19.60;99.90;;;;;;5013412;28;20502;-45
2022/05/20 07:02:50;;;;;;;11.95;4.05;;;;;;;;;;5000657;28;20041;-46
2022/05/20 07:05:16;;;;;;;5.53;3.80;;;20.20;99.90;;;;;;5033135;28;20045;-46
2022/05/20 07:07:42;;;;;;;13.48;4.53;;;20.30;99.90;;;;;;5004902;28;21702;-48
2022/05/20 07:10:09;;;;;;;6.10;3.95;;;;;;;;;;5009628;28;20050;-47
2022/05/20 07:12:35;;;;;;;6.72;4.07;;;20.50;99.90;;;;;;5005675;28;20044;-46
2022/05/20 07:15:01;;;;;;;5.85;4.25;;;20.70;99.90;;;;;;5017714;28;20436;-46
2022/05/20 07:17:27;;;;;;;9.48;4.13;;;20.80;99.90;;;;;;5032557;28;20057;-46
2022/05/20 07:19:53;;;;;;;8.52;3.70;;;20.90;99.90;;;;;;5027110;28;20041;-45
2022/05/20 07:22:19;;;;;;;6.22;3.83;;;21.10;99.90;;;;;;5016164;28;20129;-45
2022/05/20 07:24:45;;;;;;;10.57;3.75;;;21.20;99.90;;;;;;5032238;28;20128;-46
2022/05/20 07:27:11;;;;;;;8.68;3.65;;;21.40;99.90;;;;;;5032461;28;20507;-45
2022/05/20 07:29:38;;;;;;;7.03;3.45;;;21.60;99.90;;;;;;5031198;28;20040;-46
2022/05/20 07:32:04;;;;;;;8.93;3.72;;;21.90;99.90;;;;;;5029591;28;20027;-46
2022/05/20 07:34:30;;;;;;;5.97;3.55;;;22.10;99.90;;;;;;5015111;28;20091;-44
2022/05/20 07:36:56;;;;;;;9.07;3.38;;;22.20;99.90;;;;;;5032387;28;20405;-49
2022/05/20 07:39:22;;;;;;;8.75;4.05;;;;;;;;;;5019383;28;20038;-48
2022/05/20 07:41:48;;;;;;;5.38;3.10;;;;;;;;;;5012493;28;20042;-43
2022/05/20 07:44:15;;;;;;;9.32;3.70;;;;;;;;;;5020871;28;20052;-46
2022/05/20 07:46:41;;;;;;;5.18;2.72;;;22.90;99.90;;;;;;5023659;28;20121;-44
2022/05/20 07:49:07;;;;;;;5.57;3.35;;;23.10;99.70;;;;;;5029046;28;20037;-47
2022/05/20 07:51:34;;;;;;;5.43;2.75;;;23.10;99.90;;;;;;5021467;28;20370;-47
2022/05/20 07:54:08;;;;;;;7.63;2.92;;;23.40;99.10;;;;;;5025421;28;20119;-47
2022/05/20 07:56:41;;;;;;;5.90;2.67;;;23.70;98.80;;;;;;5032132;28;20116;-48
2022/05/20 07:59:07;;;;;;;5.05;2.60;;;;;;;;;;5025220;28;20061;-52
2022/05/20 08:01:37;;;;;;;7.93;2.67;;;24.00;99.90;;;;;;5023656;28;20033;-53
2022/05/20 08:06:57;;;;;;;4.70;2.38;;;24.00;94.40;;;;;;5026261;28;20087;-47
2022/05/20 08:09:23;;;;;;;4.80;2.60;;;;;;;;;;5023224;28;20493;-47
2022/05/20 08:11:50;;;;;;;7.47;2.45;;;24.50;99.90;;;;;;5023938;28;20021;-48
2022/05/20 08:14:16;;;;;;;4.28;2.17;;;24.50;92.90;;;;;;5020676;28;20025;-49
2022/05/20 08:16:42;;;;;;;6.00;2.28;;;;;;;;;;5013981;28;20033;-50
2022/05/20 08:19:08;;;;;;;8.75;3.28;;;;;;;;;;5014183;28;20030;-49
2022/05/20 08:21:34;;;;;;;5.22;2.22;;;;;;;;;;5014250;28;20034;-49
2022/05/20 08:24:01;;;;;;;4.80;2.00;;;;;;;;;;5013837;28;20490;-49
2022/05/20 08:26:26;;;;;;;3.67;1.90;;;25.20;89.90;;;;;;5014086;28;20036;-50
2022/05/20 08:28:52;;;;;;;6.53;2.55;;;25.20;90.00;;;;;;4979260;28;20487;-49
2022/05/20 08:31:18;;;;;;;8.07;2.03;;;;;;;;;;5013884;28;20044;-49
2022/05/20 08:33:45;;;;;;;5.65;2.42;;;;;;;;;;5031451;28;20030;-49
2022/05/20 08:36:11;;;;;;;4.13;1.92;;;;;;;;;;5033746;28;20037;-50
2022/05/20 08:38:37;;;;;;;4.68;1.85;;;25.80;84.20;;;;;;5032820;28;20030;-51
2022/05/20 08:41:03;;;;;;;3.83;2.08;;;26.00;82.50;;;;;;5032812;28;20030;-51
2022/05/20 08:43:33;;;;;;;3.80;2.00;;;26.00;84.10;;;;;;5027926;28;20103;-49
2022/05/20 08:46:01;;;;;;;4.68;1.80;;;26.00;82.60;;;;;;5018718;28;20041;-50
2022/05/20 08:48:28;;;;;;;5.85;2.22;;;26.20;81.10;;;;;;5028289;28;20076;-49
2022/05/20 08:50:55;;;;;;;6.15;2.35;;;;;;;;;;5025669;28;20497;-49
2022/05/20 08:53:24;;;;;;;4.07;1.90;;;26.40;90.70;;;;;;5018619;28;20048;-49
2022/05/20 08:55:50;;;;;;;5.00;1.90;;;26.30;80.50;;;;;;5029591;28;20125;-49
2022/05/20 08:58:20;;;;;;;3.28;2.30;;;26.70;80.40;;;;;;5030119;28;20125;-49
2022/05/20 09:00:46;;;;;;;4.45;1.80;;;26.70;78.80;;;;;;5031061;28;20091;-49
2022/05/20 09:03:12;;;;;;;5.40;1.90;;;26.70;79.40;;;;;;5031022;28;20041;-49
2022/05/20 09:05:39;;;;;;;3.65;1.65;;;;;;;;;;5030865;28;20130;-49
2022/05/20 09:08:06;;;;;;;3.60;1.90;;;27.40;76.90;;;;;;5025520;28;20036;-49
2022/05/20 09:10:49;;;;;;;3.55;1.70;;;27.60;79.00;;;;;;5030802;28;20045;-49
2022/05/20 09:16:12;;;;;;;2.88;1.80;;;;;;;;;;5033059;28;20087;-48
2022/05/20 09:18:40;;;;;;;3.28;1.60;;;27.50;97.40;;;;;;5032690;28;20050;-49
2022/05/20 09:21:08;;;;;;;10.73;3.28;;;27.40;94.10;;;;;;5029444;28;20034;-48
2022/05/20 09:23:50;;;;;;;4.07;2.25;;;27.40;93.50;;;;;;5032787;28;20076;-49
2022/05/20 09:26:25;;;;;;;7.18;2.63;;;27.70;93.90;;;;;;5033078;28;20029;-48
2022/05/20 09:29:06;;;;;;;2.92;1.75;;;27.20;94.30;;;;;;5030876;28;20060;-48
2022/05/20 09:31:58;;;;;;;3.00;1.60;;;27.80;95.30;;;;;;5013121;28;20084;-49
2022/05/20 09:34:27;;;;;;;6.63;1.90;;;;;;;;;;5030845;28;20079;-48
2022/05/20 09:36:57;;;;;;;3.17;2.00;;;;;;;;;;5030669;28;20454;-49
2022/05/20 09:39:38;;;;;;;4.13;1.80;;;28.40;72.10;;;;;;5034353;28;20030;-49
2022/05/20 09:42:15;;;;;;;3.67;1.77;;;;;;;;;;5034467;28;20045;-49
2022/05/20 09:44:43;;;;;;;6.38;2.20;;;;;;;;;;5034449;28;20040;-49
2022/05/20 09:47:21;;;;;;;3.03;1.80;;;;;;;;;;5001303;28;20038;-49
2022/05/20 09:49:52;;;;;;;4.65;2.08;;;;;;;;;;5034467;28;20033;-48
2022/05/20 09:52:31;;;;;;;4.63;2.50;;;;;;;;;;5034162;28;20041;-49
2022/05/20 09:55:01;;;;;;;7.32;1.90;;;;;;;;;;5034423;28;20037;-48
2022/05/20 09:57:36;;;;;;;4.57;1.48;;;;;;;;;;5034029;28;20433;-49
2022/05/20 10:00:14;;;;;;;4.55;1.70;;;;;;;;;;5034219;28;20029;-49
2022/05/20 10:02:43;;;;;;;5.03;1.95;;;;;;;;;;5032619;28;20080;-49
2022/05/20 10:05:28;;;;;;;2.58;1.77;;;;;;;;;;5033568;28;20057;-49
2022/05/20 10:07:57;;;;;;;4.50;2.10;;;;;;;;;;5036040;28;20432;-50
2022/05/20 10:10:41;;;;;;;5.40;1.80;;;;;;;;;;5030241;28;20088;-47
2022/05/20 10:13:09;;;;;;;3.15;1.60;;;;;;;;;;5036171;28;20036;-49
2022/05/20 10:15:46;;;;;;;2.47;1.48;;;;;;;;;;5033634;28;20449;-46
2022/05/20 10:18:31;;;;;;;1.88;1.50;;;;;;;;;;5026151;28;20084;-47
2022/05/20 10:20:57;;;;;;;2.80;1.52;;;;;;;;;;5029818;28;20030;-48
2022/05/20 10:23:23;;;;;;;2.80;2.00;;;;;;;;;;5019684;28;20049;-52
2022/05/20 10:25:55;;;;;;;2.35;1.70;;;;;;;;;;5025653;28;20079;-43
2022/05/20 10:34:20;;;;;;;2.45;1.40;;;31.80;70.20;;;;;;5053729;28;20040;-54
2022/05/20 10:37:01;;;;;;;2.53;1.75;;;31.70;75.90;;;;;;5053232;28;20107;-50
2022/05/20 10:39:33;;;;;;;3.35;2.00;;;;;;;;;;5044230;28;20032;-49
2022/05/20 10:42:28;;;;;;;2.85;1.63;;;31.60;74.20;;;;;;5041529;28;20073;-50
2022/05/20 10:48:38;;;;;;;2.95;1.70;;;31.60;81.40;;;;;;5004275;28;20048;-46
2022/05/20 10:51:13;;;;;;;4.93;1.90;;;31.40;78.30;;;;;;4994313;28;20038;-51
2022/05/20 10:54:06;;;;;;;5.18;1.77;;;;;;;;;;5013210;28;20030;-46
2022/05/20 10:56:44;;;;;;;2.85;1.75;;;;;;;;;;4984446;28;20038;-49
2022/05/20 10:59:15;;;;;;;3.85;2.15;;;;;;;;;;5013398;28;20057;-49
2022/05/20 11:01:44;;;;;;;2.17;1.50;;;;;;;;;;5013230;28;20495;-47
2022/05/20 11:04:38;;;;;;;3.28;1.80;;;32.80;60.80;;;;;;4996916;28;20040;-50
2022/05/20 11:07:22;;;;;;;3.20;1.55;;;32.80;61.20;;;;;;5000820;28;20177;-50
2022/05/20 11:10:06;;;;;;;6.07;2.15;;;32.90;63.50;;;;;;4966790;28;20143;-51
2022/05/20 11:12:43;;;;;;;7.30;2.33;;;33.40;65.00;;;;;;4964395;28;20047;-57
2022/05/20 11:15:41;;;;;;;4.28;1.90;;;33.60;62.60;;;;;;4961040;28;20045;-52
2022/05/20 11:18:12;;;;;;;3.22;1.80;;;33.50;63.00;;;;;;4993458;28;20510;-52
2022/05/20 11:21:15;;;;;;;4.28;1.63;;;33.60;61.50;;;;;;4993597;28;20088;-54
2022/05/20 11:23:44;;;;;;;3.42;1.63;;;33.70;61.30;;;;;;4993425;28;20490;-57
2022/05/20 11:26:38;;;;;;;2.03;1.50;;;33.40;59.30;;;;;;4993453;28;20046;-56
2022/05/20 11:29:21;;;;;;;2.75;1.73;;;33.10;60.00;;;;;;4993271;28;20086;-50
2022/05/20 11:32:02;;;;;;;3.33;1.83;;;33.30;59.70;;;;;;4993116;28;20085;-54
2022/05/20 11:34:34;;;;;;;3.83;1.30;;;33.30;59.90;;;;;;4993097;28;20046;-52
2022/05/20 11:37:09;;;;;;;2.13;1.48;;;33.20;59.30;;;;;;4992993;28;20031;-52
2022/05/20 11:40:03;;;;;;;3.22;1.70;;;32.70;56.80;;;;;;4993193;28;20114;-50
2022/05/20 11:43:11;;;;;;;2.88;1.45;;;32.90;57.60;;;;;;4993013;28;20049;-49
2022/05/20 11:46:20;;;;;;;2.85;1.80;;;33.10;57.90;;;;;;4992763;28;20131;-52
2022/05/20 11:49:05;;;;;;;2.33;1.50;;;33.10;58.00;;;;;;4992689;28;20050;-54
2022/05/20 11:51:33;;;;;;;2.08;1.30;;;33.30;58.00;;;;;;4992951;28;20034;-52
2022/05/20 11:54:02;;;;;;;1.85;1.40;;;33.30;56.50;;;;;;4992253;28;20045;-53
2022/05/20 11:56:35;;;;;;;6.40;1.77;;;33.60;59.40;;;;;;4973307;28;20031;-55
2022/05/20 11:59:24;;;;;;;4.68;1.80;;;34.10;59.20;;;;;;4973416;28;20027;-55
2022/05/20 12:01:53;;;;;;;1.48;1.33;;;34.00;64.80;;;;;;4986296;28;20042;-53
2022/05/20 12:04:21;;;;;;;2.30;1.42;;;33.70;57.00;;;;;;4992731;28;20045;-56
2022/05/20 12:06:55;;;;;;;3.03;1.35;;;33.70;58.00;;;;;;4992571;28;20034;-57
2022/05/20 12:09:42;;;;;;;3.25;1.60;;;33.30;57.30;;;;;;4992304;28;20395;-52
2022/05/20 12:12:20;;;;;;;3.20;1.58;;;33.40;57.30;;;;;;4992500;28;20506;-50
2022/05/20 12:15:27;;;;;;;2.72;1.40;;;33.40;56.50;;;;;;4987126;28;20030;-50
2022/05/20 12:17:53;;;;;;;3.22;1.98;;;33.70;58.50;;;;;;4982464;28;20139;-49
2022/05/20 12:26:04;;;;;;;3.05;1.75;;;33.70;58.20;;;;;;4972163;28;20077;-49
2022/05/20 12:28:32;;;;;;;3.72;1.65;;;33.90;64.00;;;;;;4972388;28;20407;-47
2022/05/20 12:31:19;;;;;;;2.58;1.30;;;34.40;58.30;;;;;;4972008;28;20507;-44
2022/05/20 12:34:05;;;;;;;2.38;1.48;;;34.30;57.60;;;;;;4972067;28;20093;-47
2022/05/20 12:36:31;;;;;;;3.60;1.60;;;33.80;57.60;;;;;;4972850;28;20045;-52
2022/05/20 12:39:14;;;;;;;6.20;1.63;;;33.90;59.00;;;;;;5005742;28;20033;-47
2022/05/20 12:41:49;;;;;;;3.35;1.65;;;34.30;59.20;;;;;;5032828;28;20025;-50
2022/05/20 12:44:17;;;;;;;2.70;1.42;;;34.10;57.30;;;;;;5033591;28;20480;-49
2022/05/20 12:47:13;;;;;;;2.00;1.50;;;34.30;58.00;;;;;;5033333;28;20029;-51
2022/05/20 12:49:44;;;;;;;3.30;1.60;;;34.60;57.80;;;;;;5027511;28;20136;-51
2022/05/20 12:52:23;;;;;;;2.55;1.50;;;34.30;59.00;;;;;;5031163;28;20037;-52
2022/05/20 12:54:55;;;;;;;4.95;1.70;;;33.90;67.90;;;;;;5033326;28;20065;-47
2022/05/20 12:57:31;;;;;;;5.57;1.70;;;33.80;67.90;;;;;;5032399;28;20038;-48
2022/05/20 13:00:13;;;;;;;4.18;1.73;;;34.20;63.70;;;;;;5033266;28;20440;-48
2022/05/20 13:02:42;;;;;;;3.13;1.40;;;34.30;68.30;;;;;;5029845;28;20128;-48
2022/05/20 13:05:35;;;;;;;2.20;1.55;;;33.90;71.60;;;;;;5032996;28;20037;-48
2022/05/20 13:08:04;;;;;;;2.90;1.30;;;33.50;70.40;;;;;;5031304;28;20405;-49
2022/05/20 13:10:36;;;;;;;2.35;1.23;;;34.00;72.60;;;;;;5031330;28;20033;-50
2022/05/20 13:13:14;;;;;;;2.17;1.60;;;34.20;69.90;;;;;;5034598;28;20481;-51
2022/05/20 13:15:43;;;;;;;4.43;1.60;;;33.00;56.90;;;;;;5037011;28;20052;-47
2022/05/20 13:18:20;;;;;;;4.70;1.70;;;33.40;57.10;;;;;;5036902;28;20065;-48
2022/05/20 13:20:49;;;;;;;2.53;1.65;;;33.10;57.60;;;;;;5037081;28;20029;-50
2022/05/20 13:23:30;;;;;;;4.15;1.50;;;32.90;58.00;;;;;;5051645;28;20374;-50
2022/05/20 13:25:56;;;;;;;4.40;1.42;;;33.70;58.40;;;;;;5031403;28;20034;-48
2022/05/20 13:28:25;;;;;;;3.40;1.65;;;34.30;59.00;;;;;;5052038;28;20036;-53
2022/05/20 13:31:19;;;;;;;6.20;1.73;;;34.40;58.40;;;;;;5050873;28;20053;-57
2022/05/20 13:33:44;;;;;;;23.88;3.42;;;34.70;58.30;;;;;;5033191;28;20144;-55
2022/05/20 13:36:19;;;;;;;3.90;1.30;;;35.20;58.90;;;;;;5020950;28;20445;-48
2022/05/20 13:38:50;;;;;;;5.15;1.70;;;35.20;59.10;;;;;;5016927;28;20371;-55
2022/05/20 13:41:19;;;;;;;;;;;35.30;58.80;;;;;;5017131;28;20113;-54
2022/05/20 13:43:45;;;;;;;3.45;1.70;;;35.10;59.40;;;;;;5016962;28;19905;-53
2022/05/20 13:49:18;;;;;;;8.52;1.70;;;35.30;57.20;;;;;;5033664;28;20036;-60
2022/05/20 13:51:59;;;;;;;9.35;2.00;;;35.70;72.30;;;;;;5034142;28;20462;-58
2022/05/20 13:54:38;;;;;;;;;;;35.50;73.60;;;;;;5036105;28;20041;-56
2022/05/20 13:57:06;;;;;;;2.50;1.50;;;35.30;84.40;;;;;;5035108;28;20003;-50
2022/05/20 13:59:36;;;;;;;2.10;1.45;;;35.10;78.10;;;;;;5030219;28;20033;-59
2022/05/20 14:02:11;;;;;;;4.15;2.40;;;34.40;57.80;;;;;;5030331;28;20041;-56
2022/05/20 14:04:40;;;;;;;3.42;1.33;;;34.30;56.90;;;;;;5035190;28;20087;-49
2022/05/20 14:07:27;;;;;;;2.25;1.77;;;34.80;58.40;;;;;;5035072;28;20029;-54